createdAt,value
2022-12-11T00:01:18.504Z,207.13
2022-12-11T00:03:46.614Z,174.55
2022-12-11T00:06:16.487Z,499.48
2022-12-11T00:08:44.167Z,644.20
2022-12-11T00:11:17.129Z,492.88
2022-12-11T00:13:44.766Z,245.30
2022-12-11T00:16:12.253Z,644.47
2022-12-11T00:18:39.843Z,769.40
2022-12-11T00:21:08.938Z,699.22
2022-12-11T00:23:36.781Z,833.35
2022-12-11T00:26:09.680Z,966.75
2022-12-11T00:28:36.862Z,599.08
2022-12-11T00:31:09.269Z,95.30
2022-12-11T00:33:36.254Z,412.67
2022-12-11T00:36:04.059Z,340.15
2022-12-11T00:38:31.322Z,519.67
2022-12-11T00:40:59.649Z,74.43
2022-12-11T00:43:26.619Z,147.95
2022-12-11T00:45:53.720Z,549.28
2022-12-11T00:50:47.611Z,664.13
2022-12-11T00:55:42.957Z,355.50
2022-12-11T00:58:11.141Z,426.27
2022-12-11T01:00:39.516Z,474.38
2022-12-11T01:03:07.158Z,421.23
2022-12-11T01:05:34.539Z,528.15
2022-12-11T01:08:02.108Z,592.78
2022-12-11T01:10:29.264Z,606.05
2022-12-11T01:13:05.537Z,858.40
2022-12-11T01:15:41.356Z,345.55
2022-12-11T01:18:13.361Z,504.98
2022-12-11T01:20:42.721Z,279.42
2022-12-11T01:23:13.216Z,216.48
2022-12-11T01:25:41.456Z,201.88
2022-12-11T01:28:09.673Z,212.07
2022-12-11T01:30:37.213Z,721.08
2022-12-11T01:33:04.853Z,420.40
2022-12-11T01:35:32.231Z,539.20
2022-12-11T01:37:59.561Z,905.50
2022-12-11T01:40:26.584Z,891.00
2022-12-11T01:42:53.698Z,714.90
2022-12-11T01:45:34.659Z,745.03
2022-12-11T01:48:14.376Z,551.47
2022-12-11T01:50:48.768Z,522.88
2022-12-11T01:53:21.440Z,338.30
2022-12-11T01:55:50.873Z,218.40
2022-12-11T01:58:20.625Z,338.80
2022-12-11T02:00:47.925Z,750.10
2022-12-11T02:03:14.937Z,518.20
2022-12-11T02:05:42.223Z,618.97
2022-12-11T02:08:09.786Z,795.50
2022-12-11T02:11:04.892Z,250.27
2022-12-11T02:13:57.461Z,662.08
2022-12-11T02:16:40.522Z,474.35
2022-12-11T02:19:57.878Z,497.65
2022-12-11T02:22:51.399Z,586.47
2022-12-11T02:25:31.524Z,854.88
2022-12-11T02:28:20.108Z,395.60
2022-12-11T02:30:56.052Z,711.17
2022-12-11T02:33:34.728Z,636.47
2022-12-11T02:36:05.073Z,766.38
2022-12-11T02:38:36.273Z,685.25
2022-12-11T02:41:05.353Z,896.85
2022-12-11T02:43:34.174Z,877.95
2022-12-11T02:46:04.859Z,607.47
2022-12-11T02:48:33.949Z,837.22
2022-12-11T02:51:03.416Z,1016.45
2022-12-11T02:53:33.322Z,730.90
2022-12-11T02:56:21.290Z,772.63
2022-12-11T02:58:58.183Z,579.35
2022-12-11T03:01:26.437Z,832.78
2022-12-11T03:03:54.977Z,665.28
2022-12-11T03:06:27.895Z,614.88
2022-12-11T03:08:55.009Z,682.90
2022-12-11T03:11:31.535Z,598.80
2022-12-11T03:14:05.265Z,763.40
2022-12-11T03:16:40.837Z,933.30
2022-12-11T03:19:23.804Z,583.97
2022-12-11T03:21:59.885Z,898.40
2022-12-11T03:24:33.320Z,1092.40
2022-12-11T03:27:11.145Z,729.00
2022-12-11T03:29:48.353Z,784.50
2022-12-11T03:32:23.283Z,971.08
2022-12-11T03:35:04.192Z,659.05
2022-12-11T03:37:37.743Z,891.30
2022-12-11T03:40:16.699Z,905.55
2022-12-11T03:42:47.296Z,964.28
2022-12-11T03:45:21.316Z,704.20
2022-12-11T03:48:00.328Z,678.92
2022-12-11T03:53:12.477Z,499.67
2022-12-11T03:55:50.089Z,558.50
2022-12-11T03:58:18.211Z,430.75
2022-12-11T04:00:45.644Z,561.95
2022-12-11T04:03:18.361Z,718.13
2022-12-11T04:08:35.775Z,526.63
2022-12-11T04:11:23.615Z,704.53
2022-12-11T04:14:10.947Z,517.03
2022-12-11T04:22:39.763Z,949.83
2022-12-11T04:30:38.419Z,232.63
2022-12-11T04:36:02.627Z,629.08
2022-12-11T04:43:58.244Z,850.60
2022-12-11T04:46:27.735Z,774.78
2022-12-11T04:51:49.103Z,609.95
2022-12-11T05:05:12.783Z,546.47
2022-12-11T05:10:22.493Z,727.03
2022-12-11T05:42:36.481Z,609.38
2022-12-11T05:50:33.264Z,753.40
2022-12-11T05:53:05.062Z,317.23
2022-12-11T05:55:40.487Z,256.77
2022-12-11T06:03:30.608Z,174.23
2022-12-11T06:08:44.028Z,104.80
2022-12-11T06:11:23.589Z,122.10
2022-12-11T06:13:51.918Z,169.95
2022-12-11T06:16:21.135Z,68.32
2022-12-11T06:24:28.935Z,81.45
2022-12-11T06:48:54.456Z,66.15
2022-12-11T09:15:36.319Z,77.38
2022-12-11T09:29:09.816Z,81.03
2022-12-11T09:39:46.231Z,86.53
2022-12-11T09:50:51.284Z,98.82
2022-12-11T09:59:27.296Z,73.05
2022-12-11T10:05:36.621Z,65.45
2022-12-11T10:08:35.446Z,57.90
2022-12-11T10:26:18.045Z,70.88
2022-12-11T10:31:58.865Z,76.00
2022-12-11T10:34:58.632Z,68.47
2022-12-11T10:40:12.597Z,82.97
2022-12-11T10:54:11.919Z,57.38
2022-12-11T11:11:26.345Z,50.03
2022-12-11T11:22:33.297Z,58.10
2022-12-11T11:28:04.685Z,59.83
2022-12-11T11:37:01.169Z,53.15
2022-12-11T11:39:42.096Z,39.10
2022-12-11T11:42:18.280Z,53.22
2022-12-11T11:44:56.081Z,37.00
2022-12-11T11:50:19.633Z,44.35
2022-12-11T11:52:58.311Z,26.50
2022-12-11T11:55:43.622Z,31.90
2022-12-11T11:58:25.308Z,38.10
2022-12-11T12:03:49.448Z,34.60
2022-12-11T12:16:29.287Z,25.33
2022-12-11T12:19:35.043Z,29.27
2022-12-11T12:25:26.163Z,18.60
2022-12-11T12:34:04.497Z,29.50
2022-12-11T12:55:38.117Z,29.58
2022-12-11T12:58:28.926Z,38.80
2022-12-11T13:12:50.330Z,24.15
2022-12-11T13:24:19.959Z,37.85
2022-12-11T13:29:39.260Z,31.42
2022-12-11T13:35:05.440Z,40.63
2022-12-11T13:40:44.653Z,32.60
2022-12-11T13:46:25.950Z,37.05
2022-12-11T14:15:28.736Z,31.35
2022-12-11T14:17:57.263Z,35.70
2022-12-11T14:23:20.490Z,36.08
2022-12-11T14:32:47.466Z,36.75
2022-12-11T17:08:27.590Z,19.55
2022-12-11T17:19:34.227Z,15.38
2022-12-11T17:22:02.379Z,17.70
2022-12-11T17:30:00.037Z,16.33
2022-12-11T18:09:37.545Z,22.88
2022-12-11T18:23:03.078Z,14.93
2022-12-11T18:25:32.286Z,19.40
2022-12-11T18:28:26.290Z,16.42
2022-12-11T18:33:39.710Z,12.23
2022-12-11T18:41:37.705Z,10.07
2022-12-11T18:49:39.105Z,10.80
2022-12-11T18:52:06.760Z,15.30
2022-12-11T18:54:34.818Z,8.63
2022-12-11T18:57:03.208Z,8.48
2022-12-11T18:59:35.001Z,11.35
2022-12-11T19:02:03.546Z,12.48
2022-12-11T19:09:58.406Z,10.82
2022-12-11T19:12:26.449Z,9.85
2022-12-11T19:14:55.849Z,11.48
2022-12-11T19:17:32.374Z,11.70
2022-12-11T19:20:05.230Z,12.82
2022-12-11T19:25:31.175Z,10.73
2022-12-11T19:33:36.456Z,9.40
2022-12-11T19:36:12.595Z,10.82
2022-12-11T19:38:49.256Z,10.98
2022-12-11T19:44:08.895Z,13.57
2022-12-11T19:46:37.395Z,10.88
2022-12-11T19:49:05.245Z,11.82
2022-12-11T19:51:39.138Z,10.73
2022-12-11T19:54:08.687Z,15.88
2022-12-11T19:56:38.470Z,12.48
2022-12-11T19:59:08.677Z,13.88
2022-12-11T20:01:42.117Z,14.57
2022-12-11T20:04:13.718Z,16.30
2022-12-11T20:06:49.328Z,17.83
2022-12-11T20:09:18.309Z,17.42
2022-12-11T20:11:49.919Z,18.73
2022-12-11T20:14:24.820Z,20.45
2022-12-11T20:17:14.623Z,21.10
2022-12-11T20:19:47.654Z,24.75
2022-12-11T20:22:19.526Z,25.25
2022-12-11T20:24:46.957Z,26.40
2022-12-11T20:29:55.555Z,31.30
2022-12-11T20:32:23.195Z,29.88
2022-12-11T20:34:52.558Z,36.30
2022-12-11T20:37:21.051Z,32.28
2022-12-11T20:39:49.583Z,34.70
2022-12-11T20:42:16.777Z,44.10
2022-12-11T20:47:22.072Z,54.70
2022-12-11T20:49:52.613Z,88.43
2022-12-11T20:52:22.936Z,35.13
2022-12-11T20:54:50.578Z,91.38
2022-12-11T20:57:19.161Z,91.38
2022-12-11T20:59:47.844Z,72.32
2022-12-11T21:02:16.091Z,71.88
2022-12-11T21:04:45.460Z,84.28
2022-12-11T21:07:12.915Z,64.72
2022-12-11T21:09:40.558Z,130.85
2022-12-11T21:12:08.323Z,91.43
2022-12-11T21:14:36.279Z,94.35
2022-12-11T21:17:04.825Z,199.27
2022-12-11T21:19:33.406Z,207.57
2022-12-11T21:22:00.797Z,132.23
2022-12-11T21:24:30.144Z,88.25
2022-12-11T21:27:00.274Z,124.40
2022-12-11T21:29:36.465Z,138.77
2022-12-11T21:32:04.611Z,85.00
2022-12-11T21:34:36.727Z,176.25
2022-12-11T21:37:04.163Z,73.97
2022-12-11T21:39:41.258Z,120.25
2022-12-11T21:42:08.450Z,130.00
2022-12-11T21:47:29.499Z,131.32
2022-12-11T21:52:48.487Z,104.40
2022-12-11T21:57:58.603Z,109.85
2022-12-11T22:03:07.797Z,108.78
2022-12-11T22:05:35.799Z,122.65
2022-12-11T22:08:03.528Z,154.82
2022-12-11T22:13:13.138Z,131.73
2022-12-11T22:15:41.419Z,133.07
2022-12-11T22:20:51.171Z,49.65
2022-12-11T22:23:18.316Z,120.97
2022-12-11T22:33:39.153Z,63.13
2022-12-11T22:36:07.145Z,97.68
2022-12-11T22:38:35.585Z,123.10
2022-12-11T22:41:17.549Z,140.30
2022-12-11T22:43:49.245Z,151.05
2022-12-11T22:48:59.974Z,133.60
2022-12-11T22:51:28.557Z,124.90
2022-12-11T22:53:55.865Z,118.50
2022-12-11T22:58:51.232Z,48.22
2022-12-11T23:01:21.897Z,122.47
2022-12-11T23:03:50.049Z,108.47
2022-12-11T23:06:21.280Z,128.43
2022-12-11T23:08:49.620Z,69.05
2022-12-11T23:11:30.735Z,110.13
2022-12-11T23:13:58.315Z,97.72
2022-12-11T23:19:08.980Z,84.75
2022-12-11T23:21:38.740Z,89.72
2022-12-11T23:24:07.662Z,82.20
2022-12-11T23:26:44.368Z,66.97
2022-12-11T23:34:35.827Z,111.18
2022-12-11T23:37:03.101Z,77.40
2022-12-11T23:39:33.182Z,99.25
2022-12-11T23:42:00.353Z,63.72
2022-12-11T23:46:59.386Z,75.90
2022-12-11T23:49:27.845Z,59.55
2022-12-11T23:51:55.044Z,76.97
2022-12-11T23:54:22.839Z,50.50
2022-12-11T23:56:49.956Z,53.47
